Messwerte Mount Pocono

Temperatur

Temperatur
°C
1623430800 13.00 13.00 16
1623434400 14.00 14.00 16
1623438000 15.00 15.00 15
1623441600 16.00 16.00 14
1623445200 17.00 17.00 14
1623448800 18.00 18.00 14
1623452400 19.00 19.00 14
1623456000 20.00 20.00 14
1623459600 21.00 21.00 13
1623463200 22.00 22.00 13
1623466800 23.00 23.00 12
1623470400 0.00 0.00 12
1623474000 1.00 1.00 13
1623477600 2.00 2.00 13
1623481200 3.00 3.00 13
1623484800 4.00 4.00 12
1623488400 5.00 5.00 11
1623492000 6.00 6.00 12
1623495600 7.00 7.00 14
1623499200 8.00 8.00
1623502800 9.00 9.00 15
1623506400 10.00 10.00 16
1623510000 11.00 11.00 16
1623513600 12.00 12.00

Wir danken unserem Partner:

Aktuellste Messwerte

Wettercharakter
Wetter: bedeckt
Temperatur
16 °C
Feuchtigkeit
100 %
Wind
5 km/hWindrichtung: Ost
Luftdruck
1013 hPa
Messzeit: 12. Juni 2021, 13.00Datenquelle: METAR

Weitere Messstationen in der Nähe

Messstation Temperatur Entfernung
Wilkes-Barre 20 °C 36 km
Allentown 22 °C 55 km
Andover 20.0 °C 56 km
Sussex 19 °C 64 km
Quakertown 23 °C 78 km
Monticello 19 °C 79 km
Somerville 21 °C 83 km

Wind

Windrichtung Böen Mittelwind
° km/h km/h
1623430800 13.00 12.00 - 13.00 130° 20
1623434400 14.00 13.00 - 14.00 110° 10
1623438000 15.00 14.00 - 15.00 130° 15
1623441600 16.00 15.00 - 16.00 140° 10
1623445200 17.00 16.00 - 17.00 110° 10
1623448800 18.00 17.00 - 18.00 120° 5
1623452400 19.00 18.00 - 19.00 20° 5
1623456000 20.00 19.00 - 20.00 140° 5
1623459600 21.00 20.00 - 21.00 20° 5
1623463200 22.00 21.00 - 22.00 90° 5
1623466800 23.00 22.00 - 23.00 140° 5
1623470400 0.00 23.00 - 0.00 0
1623474000 1.00 0.00 - 1.00 0
1623477600 2.00 1.00 - 2.00 0
1623481200 3.00 2.00 - 3.00 310° 5
1623484800 4.00 3.00 - 4.00 290° 5
1623488400 5.00 4.00 - 5.00 320° 5
1623492000 6.00 5.00 - 6.00 330° 5
1623495600 7.00 6.00 - 7.00 270° 5
1623499200 8.00 7.00 - 8.00
1623502800 9.00 8.00 - 9.00 270° 5
1623506400 10.00 9.00 - 10.00 320° 10
1623510000 11.00 10.00 - 11.00 310° 5
1623513600 12.00 11.00 - 12.00

Ihre Wetterstation

Fehlt Ihre Wetterstation auf unserem Portal?

Schreiben Sie an network@meteonews.ch

Klima

Wann ist es am wärmsten? Wann regnet es am wenigsten? Unsere Klimadaten geben Auskunft.